Time;durP1;ratioP1;P1;durP2;ratioP2;P2;SDS_P1;SDS_P2;PMS_P1;PMS_P2;Temp;Humidity;BMP_temperature;BMP_pressure;BME280_temperature;BME280_humidity;BME280_pressure;Samples;Min_cycle;Max_cycle;Signal;HPM_P1;HPM_P2
2022/10/14 00:01:48;;;;;;;52.30;46.65;;;;;;;;;;5071097;28;20393;-66
2022/10/14 00:04:14;;;;;;;55.35;49.53;;;;;;;;;;5070848;28;20405;-65
2022/10/14 00:06:40;;;;;;;54.80;49.28;;;;;;;;;;5070813;28;20039;-66
2022/10/14 00:09:07;;;;;;;55.80;50.05;;;;;;;;;;5070602;28;20020;-66
2022/10/14 00:11:34;;;;;;;54.65;48.67;;;;;;;;;;5070684;28;20484;-65
2022/10/14 00:14:03;;;;;;;55.92;49.65;;;;;;;;;;5070271;28;20651;-65
2022/10/14 00:16:33;;;;;;;55.92;49.95;;;;;;;;;;5070415;28;20075;-67
2022/10/14 00:19:00;;;;;;;55.00;49.05;;;;;;;;;;5070412;28;20079;-65
2022/10/14 00:21:27;;;;;;;54.85;49.03;;;;;;;;;;5052598;28;20077;-65
2022/10/14 00:23:53;;;;;;;55.95;50.17;;;;;;;;;;5070233;28;20017;-66
2022/10/14 00:26:21;;;;;;;57.38;50.20;;;;;;;;;;5070467;28;20512;-66
2022/10/14 00:28:47;;;;;;;57.58;51.28;;;;;;;;;;5070304;28;20078;-65
2022/10/14 00:31:13;;;;;;;57.40;51.30;;;;;;;;;;5052305;28;20092;-65
2022/10/14 00:33:39;;;;;;;55.80;49.75;;;;;;;;;;5052004;28;20032;-65
2022/10/14 00:36:06;;;;;;;55.70;49.10;;;;;;;;;;5070190;28;20029;-65
2022/10/14 00:38:32;;;;;;;55.00;49.08;;;;;;;;;;5070180;28;20020;-65
2022/10/14 00:40:58;;;;;;;54.55;48.70;;;;;;;;;;5070214;28;20032;-64
2022/10/14 00:43:25;;;;;;;54.08;48.53;;;;;;;;;;5069995;28;20021;-66
2022/10/14 00:45:51;;;;;;;54.42;49.03;;;;;;;;;;5070373;28;20097;-66
2022/10/14 00:48:21;;;;;;;51.50;46.17;;;;;;;;;;5070205;28;20059;-65
2022/10/14 00:50:48;;;;;;;53.85;48.00;;;;;;;;;;5070223;28;20031;-65
2022/10/14 00:53:15;;;;;;;51.13;45.63;;;;;;;;;;5069940;28;20362;-66
2022/10/14 00:55:41;;;;;;;54.38;44.95;;;;;;;;;;5052005;28;20119;-65
2022/10/14 00:58:08;;;;;;;49.45;44.15;;;;;;;;;;5052057;28;20025;-65
2022/10/14 01:00:34;;;;;;;55.08;46.38;;;;;;;;;;5070140;28;20028;-65
2022/10/14 01:03:00;;;;;;;50.90;42.53;;;;;;;;;;5069904;28;20062;-65
2022/10/14 01:05:31;;;;;;;49.40;41.65;;;;;;;;;;5070170;28;20032;-65
2022/10/14 01:08:09;;;;;;;51.30;41.10;;;;;;;;;;5070037;28;20107;-66
2022/10/14 01:10:43;;;;;;;49.08;39.53;;;;;;;;;;5070056;28;20032;-65
2022/10/14 01:13:17;;;;;;;54.13;43.35;;;;;;;;;;5051891;28;20119;-65
2022/10/14 01:15:43;;;;;;;47.45;40.35;;;;;;;;;;5052108;28;20158;-65
2022/10/14 01:18:30;;;;;;;45.05;36.92;;;;;;;;;;5069935;28;20043;-65
2022/10/14 01:20:56;;;;;;;47.88;38.28;;;;;;;;;;5069859;28;20024;-66
2022/10/14 01:23:34;;;;;;;41.15;35.75;;;;;;;;;;5069671;28;20078;-65
2022/10/14 01:26:13;;;;;;;43.63;36.13;;;;;;;;;;5054806;28;20345;-64
2022/10/14 01:28:45;;;;;;;45.40;37.80;;;;;;;;;;5073606;28;20131;-65
2022/10/14 01:31:15;;;;;;;48.00;35.13;;;;;;;;;;5073810;28;20828;-65
2022/10/14 01:33:43;;;;;;;44.53;35.38;;;;;;;;;;5073554;28;20439;-65
2022/10/14 01:36:14;;;;;;;41.28;33.42;;;;;;;;;;5055736;28;20075;-65
2022/10/14 01:38:43;;;;;;;40.08;29.75;;;;;;;;;;5073488;28;20020;-66
2022/10/14 01:41:21;;;;;;;37.35;30.27;;;;;;;;;;5055567;28;20082;-65
2022/10/14 01:43:49;;;;;;;38.25;28.65;;;;;;;;;;5073428;28;20029;-65
2022/10/14 01:46:16;;;;;;;37.22;27.65;;;;;;;;;;5073548;28;20127;-65
2022/10/14 01:48:45;;;;;;;36.13;28.58;;;;;;;;;;5055178;28;20025;-65
2022/10/14 01:51:12;;;;;;;37.83;29.67;;;;;;;;;;5073284;28;20035;-66
2022/10/14 01:53:40;;;;;;;36.55;28.42;;;;;;;;;;5073005;28;20072;-65
2022/10/14 01:56:07;;;;;;;36.10;27.73;;;;;;;;;;5073195;28;20032;-66
2022/10/14 01:58:33;;;;;;;43.38;29.17;;;;;;;;;;5073215;28;20174;-66
2022/10/14 02:01:01;;;;;;;38.75;29.50;;;;;;;;;;5073162;28;20021;-65
2022/10/14 02:03:37;;;;;;;36.55;30.05;;;;;;;;;;5072912;28;20051;-65
2022/10/14 02:06:05;;;;;;;37.20;29.98;;;;;;;;;;5073070;28;20028;-65
2022/10/14 02:08:50;;;;;;;41.42;32.78;;;;;;;;;;5072693;28;20093;-64
2022/10/14 02:11:20;;;;;;;43.17;33.03;;;;;;;;;;5054922;28;20047;-65
2022/10/14 02:13:45;;;;;;;43.08;34.88;;;;;;;;;;5072900;28;20027;-65
2022/10/14 02:16:14;;;;;;;45.15;34.97;;;;;;;;;;5072830;28;20029;-66
2022/10/14 02:18:43;;;;;;;43.40;34.47;;;;;;;;;;5072391;28;20024;-65
2022/10/14 02:21:18;;;;;;;43.72;34.45;;;;;;;;;;5054843;28;20052;-64
2022/10/14 02:23:48;;;;;;;42.40;33.67;;;;;;;;;;5054544;28;20384;-65
2022/10/14 02:26:14;;;;;;;46.78;35.80;;;;;;;;;;5072772;28;20472;-66
2022/10/14 02:28:42;;;;;;;43.30;34.50;;;;;;;;;;5054393;28;20033;-64
2022/10/14 02:31:10;;;;;;;46.78;37.22;;;;;;;;;;5054536;28;20521;-65
2022/10/14 02:33:39;;;;;;;47.03;37.22;;;;;;;;;;5072153;28;20511;-66
2022/10/14 02:36:06;;;;;;;52.13;40.47;;;;;;;;;;5071143;28;20111;-65
2022/10/14 02:38:33;;;;;;;49.42;38.85;;;;;;;;;;5054480;28;20496;-66
2022/10/14 02:41:03;;;;;;;50.58;38.60;;;;;;;;;;5054442;28;20027;-65
2022/10/14 02:43:29;;;;;;;50.08;40.42;;;;;;;;;;5071989;28;20025;-65
2022/10/14 02:45:57;;;;;;;47.15;36.40;;;;;;;;;;5072196;28;20031;-64
2022/10/14 02:48:23;;;;;;;53.22;40.80;;;;;;;;;;5054106;28;20033;-65
2022/10/14 02:50:49;;;;;;;49.00;39.33;;;;;;;;;;5072176;28;20499;-67
2022/10/14 02:53:15;;;;;;;54.47;39.85;;;;;;;;;;5072071;28;20024;-65
2022/10/14 02:55:41;;;;;;;53.42;39.58;;;;;;;;;;5054069;28;20029;-65
2022/10/14 02:58:08;;;;;;;46.67;37.83;;;;;;;;;;5054027;28;20135;-65
2022/10/14 03:00:33;;;;;;;50.22;38.38;;;;;;;;;;5072096;28;20032;-65
2022/10/14 03:02:59;;;;;;;47.35;36.60;;;;;;;;;;5071963;28;20031;-66
2022/10/14 03:05:25;;;;;;;47.58;35.97;;;;;;;;;;5071788;28;20020;-65
2022/10/14 03:07:51;;;;;;;50.42;36.95;;;;;;;;;;5071950;28;20028;-65
2022/10/14 03:10:17;;;;;;;46.17;36.63;;;;;;;;;;5071902;28;20031;-64
2022/10/14 03:12:44;;;;;;;47.00;37.10;;;;;;;;;;5072004;28;20025;-65
2022/10/14 03:15:10;;;;;;;49.65;36.80;;;;;;;;;;5053586;28;20388;-65
2022/10/14 03:17:36;;;;;;;47.38;38.70;;;;;;;;;;5071437;28;20503;-65
2022/10/14 03:20:05;;;;;;;50.65;37.90;;;;;;;;;;5071657;28;20024;-65
2022/10/14 03:22:32;;;;;;;54.47;39.80;;;;;;;;;;5071563;28;20095;-65
2022/10/14 03:24:58;;;;;;;53.08;40.15;;;;;;;;;;5053530;28;20025;-65
2022/10/14 03:27:24;;;;;;;54.28;39.92;;;;;;;;;;5071513;28;20070;-66
2022/10/14 03:29:50;;;;;;;58.08;41.95;;;;;;;;;;5053372;28;20120;-65
2022/10/14 03:32:16;;;;;;;62.63;42.22;;;;;;;;;;5071489;28;20148;-65
2022/10/14 03:34:42;;;;;;;57.60;41.17;;;;;;;;;;5070974;28;20519;-64
2022/10/14 03:37:08;;;;;;;66.75;45.85;;;;;;;;;;5053701;28;20029;-66
2022/10/14 03:39:34;;;;;;;69.30;45.42;;;;;;;;;;5051476;28;20460;-66
2022/10/14 03:42:00;;;;;;;71.10;46.38;;;;;;;;;;5067282;28;20025;-65
2022/10/14 03:44:26;;;;;;;66.45;46.10;;;;;;;;;;5070780;28;20024;-65
2022/10/14 03:46:52;;;;;;;74.47;49.40;;;;;;;;;;5070992;28;20047;-66
2022/10/14 03:49:18;;;;;;;69.70;47.60;;;;;;;;;;5070638;28;20109;-65
2022/10/14 03:51:44;;;;;;;64.93;45.17;;;;;;;;;;5053094;28;20472;-66
2022/10/14 03:54:10;;;;;;;62.80;46.15;;;;;;;;;;5070808;28;20032;-66
2022/10/14 03:56:36;;;;;;;69.20;46.40;;;;;;;;;;5052978;28;20039;-65
2022/10/14 03:59:02;;;;;;;66.10;47.45;;;;;;;;;;5052692;28;20031;-65
2022/10/14 04:01:28;;;;;;;64.10;46.28;;;;;;;;;;5070872;28;20473;-66
2022/10/14 04:03:54;;;;;;;73.85;47.70;;;;;;;;;;5070522;28;20074;-65
2022/10/14 04:06:20;;;;;;;71.25;49.72;;;;;;;;;;5070956;28;20059;-66
2022/10/14 04:08:46;;;;;;;72.65;47.80;;;;;;;;;;5070554;28;20033;-66
2022/10/14 04:11:12;;;;;;;74.00;48.65;;;;;;;;;;5070787;28;20055;-65
2022/10/14 04:13:38;;;;;;;68.05;48.42;;;;;;;;;;5052324;28;20480;-65
2022/10/14 04:16:08;;;;;;;74.65;50.67;;;;;;;;;;5052858;28;20086;-65
2022/10/14 04:18:34;;;;;;;72.90;49.40;;;;;;;;;;5052456;28;20499;-65
2022/10/14 04:21:01;;;;;;;79.03;52.83;;;;;;;;;;5070325;28;20024;-66
2022/10/14 04:23:27;;;;;;;77.80;50.15;;;;;;;;;;5052155;28;20025;-65
2022/10/14 04:25:53;;;;;;;78.22;51.35;;;;;;;;;;5070415;28;20052;-66
2022/10/14 04:28:19;;;;;;;76.60;49.00;;;;;;;;;;5070244;28;20059;-66
2022/10/14 04:30:45;;;;;;;76.93;48.92;;;;;;;;;;5043019;22;20417;-65
2022/10/14 04:33:11;;;;;;;74.57;49.45;;;;;;;;;;5031490;28;20022;-65
2022/10/14 04:35:37;;;;;;;74.28;49.17;;;;;;;;;;5031985;28;20120;-66
2022/10/14 04:38:03;;;;;;;73.72;49.67;;;;;;;;;;5014294;28;20021;-65
2022/10/14 04:40:29;;;;;;;65.38;46.58;;;;;;;;;;5027599;28;20026;-65
2022/10/14 04:42:56;;;;;;;68.30;49.35;;;;;;;;;;5012070;28;20026;-64
2022/10/14 04:45:22;;;;;;;67.60;48.70;;;;;;;;;;5012090;28;20482;-65
2022/10/14 04:47:48;;;;;;;69.05;46.75;;;;;;;;;;5012336;28;20022;-66
2022/10/14 04:50:14;;;;;;;70.55;49.65;;;;;;;;;;5011927;28;20026;-65
2022/10/14 04:52:40;;;;;;;66.32;47.50;;;;;;;;;;5011898;28;20033;-64
2022/10/14 04:55:06;;;;;;;66.47;48.08;;;;;;;;;;5012352;28;20084;-65
2022/10/14 04:57:32;;;;;;;71.65;48.20;;;;;;;;;;4994982;28;20026;-67
2022/10/14 04:59:58;;;;;;;68.05;46.95;;;;;;;;;;5013035;28;20026;-64
2022/10/14 05:02:24;;;;;;;64.80;48.42;;;;;;;;;;4998245;28;20026;-66
2022/10/14 05:04:50;;;;;;;68.38;47.83;;;;;;;;;;5016164;28;20030;-64
2022/10/14 05:07:16;;;;;;;66.28;49.08;;;;;;;;;;5016300;28;20497;-64
2022/10/14 05:09:42;;;;;;;71.72;50.50;;;;;;;;;;4999101;28;20052;-65
2022/10/14 05:12:08;;;;;;;74.20;47.88;;;;;;;;;;5015703;28;20064;-66
2022/10/14 05:14:34;;;;;;;67.43;48.17;;;;;;;;;;5019553;28;20500;-67
2022/10/14 05:17:01;;;;;;;67.03;46.92;;;;;;;;;;5035266;28;20022;-64
2022/10/14 05:19:27;;;;;;;66.70;47.65;;;;;;;;;;5035264;28;20033;-66
2022/10/14 05:21:53;;;;;;;66.40;48.20;;;;;;;;;;5034983;28;20022;-65
2022/10/14 05:24:18;;;;;;;68.45;49.22;;;;;;;;;;5035120;28;20385;-64
2022/10/14 05:26:44;;;;;;;63.25;46.95;;;;;;;;;;5017302;28;20120;-64
2022/10/14 05:29:11;;;;;;;62.10;46.35;;;;;;;;;;5017087;28;20040;-65
2022/10/14 05:31:37;;;;;;;65.45;48.47;;;;;;;;;;5035058;28;20055;-63
2022/10/14 05:34:03;;;;;;;71.35;45.88;;;;;;;;;;5034739;28;20374;-64
2022/10/14 05:36:29;;;;;;;69.72;46.00;;;;;;;;;;5034751;28;20037;-61
2022/10/14 05:38:57;;;;;;;67.38;46.20;;;;;;;;;;5016790;28;20432;-64
2022/10/14 05:41:23;;;;;;;67.15;47.10;;;;;;;;;;5031742;28;20081;-64
2022/10/14 05:43:49;;;;;;;69.38;47.83;;;;;;;;;;5014734;28;20080;-64
2022/10/14 05:46:15;;;;;;;67.15;46.35;;;;;;;;;;5015061;28;20099;-65
2022/10/14 05:48:41;;;;;;;67.93;46.78;;;;;;;;;;5014757;28;20116;-62
2022/10/14 05:51:08;;;;;;;59.95;43.25;;;;;;;;;;5014715;28;20125;-61
2022/10/14 05:53:34;;;;;;;70.88;44.95;;;;;;;;;;4998401;28;20030;-66
2022/10/14 05:56:04;;;;;;;64.82;45.70;;;;;;;;;;4997106;28;20141;-66
2022/10/14 05:58:30;;;;;;;68.85;44.97;;;;;;;;;;5014907;28;20112;-64
2022/10/14 06:00:59;;;;;;;73.55;47.78;;;;;;;;;;4997298;28;20106;-61
2022/10/14 06:03:25;;;;;;;;;;;;;;;;;;5015193;28;20033;-63
2022/10/14 06:05:51;;;;;;;73.43;47.33;;;;;;;;;;5014611;28;19905;-62
2022/10/14 06:08:17;;;;;;;75.53;47.83;;;;;;;;;;5014599;28;20379;-61
2022/10/14 06:10:43;;;;;;;75.18;46.58;;;;;;;;;;5015092;28;20049;-61
2022/10/14 06:13:09;;;;;;;70.20;48.53;;;;;;;;;;5015030;28;20486;-62
2022/10/14 06:15:35;;;;;;;75.50;49.15;;;;;;;;;;5014514;28;20044;-62
2022/10/14 06:18:01;;;;;;;82.57;51.83;;;;;;;;;;5014694;28;20152;-63
2022/10/14 06:20:28;;;;;;;79.20;51.08;;;;;;;;;;5014700;28;20572;-64
2022/10/14 06:22:54;;;;;;;87.18;52.55;;;;;;;;;;4997341;28;20026;-62
2022/10/14 06:25:20;;;;;;;83.47;51.22;;;;;;;;;;5014854;28;20478;-62
2022/10/14 06:27:46;;;;;;;80.68;51.80;;;;;;;;;;5014677;28;20030;-64
2022/10/14 06:30:12;;;;;;;87.95;51.95;;;;;;;;;;5014592;28;20454;-64
2022/10/14 06:32:38;;;;;;;76.28;49.35;;;;;;;;;;5014794;28;20129;-64
2022/10/14 06:35:04;;;;;;;74.75;48.97;;;;;;;;;;5014444;28;20053;-64
2022/10/14 06:37:30;;;;;;;90.68;52.45;;;;;;;;;;4997048;28;20068;-64
2022/10/14 06:39:56;;;;;;;69.93;46.13;;;;;;;;;;4997086;28;20022;-64
2022/10/14 06:42:22;;;;;;;72.53;49.63;;;;;;;;;;5019458;28;20013;-64
2022/10/14 06:44:48;;;;;;;68.53;44.85;;;;;;;;;;5034088;28;20059;-64
2022/10/14 06:47:14;;;;;;;68.20;44.00;;;;;;;;;;5034118;28;20078;-63
2022/10/14 06:49:40;;;;;;;65.15;46.70;;;;;;;;;;5034301;28;20561;-65
2022/10/14 06:52:07;;;;;;;67.88;45.95;;;;;;;;;;5034540;28;20030;-63
2022/10/14 06:54:33;;;;;;;63.22;42.38;;;;;;;;;;5035233;28;20021;-64
2022/10/14 06:56:59;;;;;;;49.90;39.40;;;;;;;;;;5034361;28;20492;-64
2022/10/14 06:59:27;;;;;;;53.97;41.47;;;;;;;;;;5033937;28;20045;-65
2022/10/14 07:01:54;;;;;;;54.50;38.33;;;;;;;;;;5034856;28;20024;-66
2022/10/14 07:04:20;;;;;;;52.72;39.50;;;;;;;;;;5034466;28;20056;-65
2022/10/14 07:06:46;;;;;;;50.05;38.30;;;;;;;;;;5028593;28;20026;-64
2022/10/14 07:09:12;;;;;;;52.42;38.92;;;;;;;;;;5036239;28;20379;-66
2022/10/14 07:11:38;;;;;;;50.65;37.78;;;;;;;;;;5008206;28;20052;-66
2022/10/14 07:14:04;;;;;;;42.05;35.95;;;;;;;;;;5016540;28;20029;-66
2022/10/14 07:16:30;;;;;;;45.80;36.17;;;;;;;;;;5038817;28;20029;-66
2022/10/14 07:18:56;;;;;;;42.22;35.25;;;;;;;;;;5026690;28;20021;-66
2022/10/14 07:21:22;;;;;;;38.95;33.47;;;;;;;;;;5034807;28;20443;-66
2022/10/14 07:23:48;;;;;;;39.47;32.53;;;;;;;;;;5033242;28;20026;-64
2022/10/14 07:26:15;;;;;;;38.75;32.10;;;;;;;;;;5015930;28;20037;-65
2022/10/14 07:28:41;;;;;;;39.08;33.50;;;;;;;;;;5015722;28;20025;-64
2022/10/14 07:31:08;;;;;;;39.85;32.67;;;;;;;;;;5016206;28;20071;-66
2022/10/14 07:33:35;;;;;;;39.08;32.38;;;;;;;;;;5032016;28;20126;-65
2022/10/14 07:36:03;;;;;;;45.92;38.63;;;;;;;;;;5033194;28;20025;-65
2022/10/14 07:38:29;;;;;;;44.13;36.80;;;;;;;;;;5033775;28;20021;-66
2022/10/14 07:40:59;;;;;;;38.33;31.42;;;;;;;;;;5033372;28;20025;-66
2022/10/14 07:43:25;;;;;;;43.65;36.17;;;;;;;;;;5032721;28;20028;-67
2022/10/14 07:45:51;;;;;;;38.05;32.75;;;;;;;;;;5032982;28;20029;-66
2022/10/14 07:48:17;;;;;;;34.97;29.33;;;;;;;;;;5015466;28;20025;-66
2022/10/14 07:50:48;;;;;;;36.53;29.98;;;;;;;;;;5033187;28;20049;-66
2022/10/14 07:53:14;;;;;;;31.63;27.55;;;;;;;;;;5032668;28;20029;-61
2022/10/14 07:55:50;;;;;;;32.25;26.30;;;;;;;;;;5014835;28;20026;-63
2022/10/14 07:58:16;;;;;;;30.08;25.75;;;;;;;;;;5032975;28;20377;-62
2022/10/14 08:00:44;;;;;;;29.35;26.15;;;;;;;;;;5032741;28;20021;-63
2022/10/14 08:03:10;;;;;;;30.00;25.70;;;;;;;;;;5032484;28;20505;-61
2022/10/14 08:05:36;;;;;;;32.10;25.70;;;;;;;;;;5032888;28;20036;-63
2022/10/14 08:08:02;;;;;;;27.20;23.40;;;;;;;;;;5032682;28;20569;-62
2022/10/14 08:10:28;;;;;;;23.85;20.90;;;;;;;;;;5032841;28;20111;-61
2022/10/14 08:12:56;;;;;;;24.27;20.85;;;;;;;;;;5032733;28;20033;-63
2022/10/14 08:15:27;;;;;;;27.42;20.95;;;;;;;;;;5032454;28;20112;-59
2022/10/14 08:17:53;;;;;;;23.38;19.13;;;;;;;;;;5032765;28;20037;-62
2022/10/14 08:20:19;;;;;;;23.65;18.65;;;;;;;;;;5032612;28;20021;-64
2022/10/14 08:22:45;;;;;;;21.67;16.48;;;;;;;;;;5032657;28;20036;-64
2022/10/14 08:25:11;;;;;;;22.33;16.90;;;;;;;;;;5032329;28;20029;-63
2022/10/14 08:27:37;;;;;;;22.40;16.85;;;;;;;;;;5032338;28;20136;-63
2022/10/14 08:30:04;;;;;;;21.83;16.17;;;;;;;;;;5028594;28;20025;-62
2022/10/14 08:32:30;;;;;;;23.70;17.58;;;;;;;;;;5014930;28;20029;-65
2022/10/14 08:34:56;;;;;;;21.48;17.00;;;;;;;;;;5015669;28;20025;-65
2022/10/14 08:37:22;;;;;;;22.65;17.08;;;;;;;;;;5014696;28;20103;-65
2022/10/14 08:39:48;;;;;;;22.55;15.75;;;;;;;;;;5032143;28;20094;-65
2022/10/14 08:42:15;;;;;;;22.67;15.68;;;;;;;;;;5014440;28;20172;-62
2022/10/14 08:44:50;;;;;;;20.45;15.93;;;;;;;;;;5031818;28;20164;-63
2022/10/14 08:47:20;;;;;;;21.05;14.13;;;;;;;;;;5031912;28;20014;-63
2022/10/14 08:49:52;;;;;;;20.50;14.73;;;;;;;;;;5032486;28;20048;-63
2022/10/14 08:52:30;;;;;;;21.58;15.68;;;;;;;;;;5032627;28;20029;-63
2022/10/14 08:55:16;;;;;;;20.65;15.15;;;;;;;;;;5032235;28;20415;-63
2022/10/14 08:57:47;;;;;;;20.83;14.77;;;;;;;;;;5031855;28;20034;-64
2022/10/14 09:00:14;;;;;;;19.92;13.65;;;;;;;;;;5014356;28;20116;-60
2022/10/14 09:02:47;;;;;;;20.17;13.80;;;;;;;;;;5032162;28;20025;-61
2022/10/14 09:05:24;;;;;;;22.77;15.32;;;;;;;;;;5031576;28;20566;-62
2022/10/14 09:07:51;;;;;;;18.55;13.50;;;;;;;;;;5016182;28;20036;-63
2022/10/14 09:10:30;;;;;;;19.25;14.57;;;;;;;;;;5031617;28;20507;-63
2022/10/14 09:12:59;;;;;;;20.70;14.02;;;;;;;;;;5032996;28;20022;-64
2022/10/14 09:15:33;;;;;;;19.27;14.07;;;;;;;;;;5032102;28;20029;-63
2022/10/14 09:18:19;;;;;;;17.60;12.70;;;;;;;;;;5032418;28;20026;-63
2022/10/14 09:20:45;;;;;;;18.10;13.18;;;;;;;;;;5013291;28;20049;-64
2022/10/14 09:23:14;;;;;;;17.80;12.85;;;;;;;;;;5012528;28;20093;-61
2022/10/14 09:25:44;;;;;;;17.27;12.15;;;;;;;;;;5033130;28;20432;-64
2022/10/14 09:28:11;;;;;;;18.85;12.45;;;;;;;;;;5026890;28;20026;-63
2022/10/14 09:30:39;;;;;;;17.25;12.63;;;;;;;;;;5015302;28;20461;-65
2022/10/14 09:33:06;;;;;;;18.77;11.98;;;;;;;;;;5031554;28;20152;-65
2022/10/14 09:35:34;;;;;;;18.08;11.93;;;;;;;;;;5031745;28;20025;-63
2022/10/14 09:38:00;;;;;;;18.45;12.13;;;;;;;;;;5031875;28;20018;-60
2022/10/14 09:40:29;;;;;;;17.00;11.55;;;;;;;;;;5031560;28;20026;-64
2022/10/14 09:43:01;;;;;;;17.65;11.60;;;;;;;;;;5031707;28;20025;-64
2022/10/14 09:45:50;;;;;;;17.92;12.05;;;;;;;;;;5014210;28;20025;-63
2022/10/14 09:48:38;;;;;;;19.63;13.48;;;;;;;;;;5024466;28;20112;-65
2022/10/14 09:51:07;;;;;;;17.55;12.27;;;;;;;;;;5021033;28;20034;-66
2022/10/14 09:53:40;;;;;;;16.60;11.57;;;;;;;;;;5034370;28;20170;-65
2022/10/14 09:56:07;;;;;;;18.67;12.02;;;;;;;;;;5028998;28;20018;-63
2022/10/14 09:58:54;;;;;;;17.80;11.95;;;;;;;;;;5015346;28;20029;-63
2022/10/14 10:01:27;;;;;;;18.30;11.95;;;;;;;;;;5005011;28;20108;-61
2022/10/14 10:06:58;;;;;;;18.38;11.95;;;;;;;;;;5035061;28;20117;-63
2022/10/14 10:09:24;;;;;;;18.08;11.82;;;;;;;;;;5035227;28;20312;-63
2022/10/14 10:11:50;;;;;;;17.40;12.07;;;;;;;;;;5016980;28;20450;-67
2022/10/14 10:14:21;;;;;;;17.25;11.68;;;;;;;;;;5017241;28;20030;-67
2022/10/14 10:16:47;;;;;;;18.05;12.90;;;;;;;;;;5017087;28;20346;-67
2022/10/14 10:19:25;;;;;;;18.17;12.07;;;;;;;;;;5035272;28;20099;-67
2022/10/14 10:21:51;;;;;;;18.70;11.70;;;;;;;;;;5016165;28;20026;-67
2022/10/14 10:24:22;;;;;;;19.55;12.93;;;;;;;;;;5016510;28;20076;-67
2022/10/14 10:26:48;;;;;;;17.33;12.35;;;;;;;;;;5034116;28;20168;-67
2022/10/14 10:31:49;;;;;;;18.17;11.90;;;;;;;;;;5069768;28;20044;-61
2022/10/14 10:34:33;;;;;;;16.98;11.70;;;;;;;;;;5071971;28;20032;-59
2022/10/14 10:37:07;;;;;;;17.80;12.00;;;;;;;;;;5072399;28;20520;-61
2022/10/14 10:39:52;;;;;;;16.70;11.90;;;;;;;;;;5072369;28;20025;-60
2022/10/14 10:42:38;;;;;;;23.05;12.73;;;;;;;;;;5072127;28;20032;-61
2022/10/14 10:45:23;;;;;;;19.90;13.60;;;;;;;;;;5071908;28;20065;-61
2022/10/14 10:48:19;;;;;;;16.73;11.68;;;;;;;;;;5072431;28;20362;-61
2022/10/14 10:50:45;;;;;;;17.63;12.43;;;;;;;;;;4984547;28;20272;-61
2022/10/14 10:53:12;;;;;;;17.60;12.13;;;;;;;;;;5071338;28;20048;-61
2022/10/14 10:55:41;;;;;;;17.92;11.40;;;;;;;;;;5072092;28;20433;-63
2022/10/14 10:58:25;;;;;;;16.38;11.40;;;;;;;;;;5070772;28;20055;-62
2022/10/14 11:01:04;;;;;;;18.00;12.48;;;;;;;;;;5053763;28;20027;-60
2022/10/14 11:03:49;;;;;;;18.00;12.48;;;;;;;;;;5053391;28;20048;-61
2022/10/14 11:12:19;;;;;;;19.35;13.70;;;;;;;;;;5072493;28;20119;-66
2022/10/14 11:14:57;;;;;;;16.38;10.95;;;;;;;;;;5071482;28;20047;-64
2022/10/14 11:17:23;;;;;;;;;;;;;;;;;;5072119;28;20056;-63
2022/10/14 11:19:52;;;;;;;16.48;10.05;;;;;;;;;;5053293;28;19944;-63
2022/10/14 11:22:51;;;;;;;16.27;10.57;;;;;;;;;;5071729;28;20477;-64
2022/10/14 11:25:17;;;;;;;16.52;10.80;;;;;;;;;;5016497;28;20392;-61
2022/10/14 11:27:44;;;;;;;18.15;10.50;;;;;;;;;;5070989;28;20031;-61
2022/10/14 11:30:15;;;;;;;16.30;10.10;;;;;;;;;;5070999;28;20047;-62
2022/10/14 11:33:00;;;;;;;15.13;9.60;;;;;;;;;;5071125;28;20032;-64
2022/10/14 11:35:30;;;;;;;15.00;9.75;;;;;;;;;;5070641;28;20060;-66
2022/10/14 11:37:59;;;;;;;15.77;9.90;;;;;;;;;;5070788;28;20077;-63
2022/10/14 11:40:38;;;;;;;15.35;9.43;;;;;;;;;;5070701;28;20020;-63
2022/10/14 11:43:12;;;;;;;15.90;9.68;;;;;;;;;;5053694;28;20020;-64
2022/10/14 11:45:51;;;;;;;15.00;9.27;;;;;;;;;;5051082;28;20112;-62
2022/10/14 11:48:17;;;;;;;14.95;9.75;;;;;;;;;;5050872;28;20025;-63
2022/10/14 11:50:44;;;;;;;15.35;9.65;;;;;;;;;;5050510;28;20388;-62
2022/10/14 11:53:16;;;;;;;15.38;9.25;;;;;;;;;;5050904;28;20025;-65
2022/10/14 11:55:46;;;;;;;15.98;9.60;;;;;;;;;;5050578;28;20036;-64
2022/10/14 11:58:24;;;;;;;16.13;9.52;;;;;;;;;;5051446;28;20025;-61
2022/10/14 12:00:53;;;;;;;14.50;9.20;;;;;;;;;;5050531;28;20025;-63
2022/10/14 12:03:19;;;;;;;15.02;9.55;;;;;;;;;;5050379;28;20026;-65
2022/10/14 12:05:51;;;;;;;16.17;9.80;;;;;;;;;;5050430;28;20059;-65
2022/10/14 12:08:17;;;;;;;16.52;9.52;;;;;;;;;;5050195;28;20029;-62
2022/10/14 12:10:45;;;;;;;14.55;9.02;;;;;;;;;;5050365;28;20092;-60
2022/10/14 12:13:15;;;;;;;15.90;9.73;;;;;;;;;;5056324;28;20036;-62
2022/10/14 12:15:44;;;;;;;14.85;9.10;;;;;;;;;;5070085;28;20040;-61
2022/10/14 12:18:11;;;;;;;15.32;9.70;;;;;;;;;;5070315;28;20056;-63
2022/10/14 12:20:48;;;;;;;15.43;9.73;;;;;;;;;;5070190;28;20025;-63
2022/10/14 12:23:17;;;;;;;17.42;9.85;;;;;;;;;;5070135;28;20589;-64
2022/10/14 12:25:48;;;;;;;14.43;9.30;;;;;;;;;;5070229;28;20051;-63
2022/10/14 12:28:14;;;;;;;15.68;9.55;;;;;;;;;;5069890;28;20047;-65
2022/10/14 12:30:42;;;;;;;14.27;9.23;;;;;;;;;;5069921;28;20078;-62
2022/10/14 12:33:09;;;;;;;14.55;9.45;;;;;;;;;;5070196;28;20029;-63
2022/10/14 12:35:50;;;;;;;15.18;9.75;;;;;;;;;;5070002;28;20043;-61
2022/10/14 12:38:17;;;;;;;14.43;8.88;;;;;;;;;;5070141;28;20023;-65
2022/10/14 12:40:43;;;;;;;15.77;9.20;;;;;;;;;;5070045;28;20066;-63
2022/10/14 12:43:13;;;;;;;15.38;9.05;;;;;;;;;;5069489;28;20029;-62
2022/10/14 12:45:47;;;;;;;14.48;8.95;;;;;;;;;;5069854;28;20107;-63
2022/10/14 12:48:13;;;;;;;14.27;9.10;;;;;;;;;;5070139;28;20032;-64
2022/10/14 12:50:40;;;;;;;15.40;9.55;;;;;;;;;;5069807;28;20110;-60
2022/10/14 12:53:14;;;;;;;14.45;9.13;;;;;;;;;;5069802;28;20028;-60
2022/10/14 12:55:48;;;;;;;16.02;9.00;;;;;;;;;;5069775;28;20051;-61
2022/10/14 12:58:21;;;;;;;14.98;9.40;;;;;;;;;;5051836;28;20025;-63
2022/10/14 13:00:52;;;;;;;15.35;9.40;;;;;;;;;;5069903;28;20028;-63
2022/10/14 13:03:25;;;;;;;14.40;8.85;;;;;;;;;;5069610;28;20070;-63
2022/10/14 13:05:51;;;;;;;14.65;8.93;;;;;;;;;;5069826;28;20495;-64
2022/10/14 13:08:23;;;;;;;15.95;8.80;;;;;;;;;;5069928;28;20384;-64
2022/10/14 13:11:27;;;;;;;14.57;8.73;;;;;;;;;;5069650;28;20086;-64
2022/10/14 13:14:00;;;;;;;16.75;8.95;;;;;;;;;;4987336;28;20093;-63
2022/10/14 13:16:26;;;;;;;15.15;8.98;;;;;;;;;;4988142;28;20038;-64
2022/10/14 13:18:53;;;;;;;15.63;10.75;;;;;;;;;;5030389;28;20052;-64
2022/10/14 13:21:37;;;;;;;16.30;11.80;;;;;;;;;;5071621;28;20465;-63
2022/10/14 13:24:22;;;;;;;17.98;13.73;;;;;;;;;;5073152;28;20451;-63
2022/10/14 13:26:58;;;;;;;18.23;15.10;;;;;;;;;;5073279;28;20020;-64
2022/10/14 13:29:30;;;;;;;19.08;17.08;;;;;;;;;;5073333;28;20032;-66
2022/10/14 13:32:15;;;;;;;18.75;16.75;;;;;;;;;;5073522;28;20120;-66
2022/10/14 13:34:59;;;;;;;19.05;17.02;;;;;;;;;;5073132;28;20047;-64
2022/10/14 13:37:30;;;;;;;19.52;17.52;;;;;;;;;;5073304;28;20051;-62
2022/10/14 13:39:56;;;;;;;20.20;18.05;;;;;;;;;;5073155;28;20073;-63
2022/10/14 13:42:34;;;;;;;20.38;18.17;;;;;;;;;;5073151;28;20130;-62
2022/10/14 13:45:06;;;;;;;20.10;18.00;;;;;;;;;;5072808;28;20388;-64
2022/10/14 13:47:33;;;;;;;19.80;17.70;;;;;;;;;;5073003;28;20025;-62
2022/10/14 13:50:00;;;;;;;19.35;17.25;;;;;;;;;;5072605;28;20049;-64
2022/10/14 13:52:26;;;;;;;20.30;18.30;;;;;;;;;;5072854;28;20039;-64
2022/10/14 13:55:12;;;;;;;21.13;18.92;;;;;;;;;;5054766;28;20396;-62
2022/10/14 13:57:38;;;;;;;21.95;18.90;;;;;;;;;;5072826;28;20033;-63
2022/10/14 14:00:20;;;;;;;20.40;18.30;;;;;;;;;;5072666;28;20496;-64
2022/10/14 14:02:47;;;;;;;20.73;18.55;;;;;;;;;;5072886;28;20032;-62
2022/10/14 14:05:15;;;;;;;21.65;19.48;;;;;;;;;;5072516;28;20028;-64
2022/10/14 14:07:43;;;;;;;22.90;19.20;;;;;;;;;;5072559;28;20082;-61
2022/10/14 14:10:09;;;;;;;20.98;18.77;;;;;;;;;;5072743;28;20502;-61
2022/10/14 14:12:35;;;;;;;21.15;19.00;;;;;;;;;;5072973;28;20031;-61
2022/10/14 14:15:01;;;;;;;20.27;18.27;;;;;;;;;;5072127;28;20021;-59
2022/10/14 14:17:31;;;;;;;20.33;18.30;;;;;;;;;;5072289;28;20028;-61
2022/10/14 14:19:57;;;;;;;21.80;19.45;;;;;;;;;;5072519;28;20100;-60
2022/10/14 14:22:28;;;;;;;20.77;18.67;;;;;;;;;;5072858;28;20025;-59
2022/10/14 14:25:12;;;;;;;22.00;19.75;;;;;;;;;;5072383;28;20038;-60
2022/10/14 14:27:52;;;;;;;21.92;19.80;;;;;;;;;;5072184;28;20504;-63
2022/10/14 14:30:22;;;;;;;23.42;21.05;;;;;;;;;;5072183;28;20073;-61
2022/10/14 14:32:48;;;;;;;25.30;22.80;;;;;;;;;;5072067;28;20413;-60
2022/10/14 14:35:18;;;;;;;25.25;22.85;;;;;;;;;;5054285;28;20115;-61
2022/10/14 14:37:45;;;;;;;27.70;25.10;;;;;;;;;;5072462;28;20404;-60
2022/10/14 14:40:15;;;;;;;32.72;29.63;;;;;;;;;;5072354;28;20377;-62
2022/10/14 14:42:42;;;;;;;29.52;26.77;;;;;;;;;;5072163;28;20028;-61